Time;durP1;ratioP1;P1;durP2;ratioP2;P2;SDS_P1;SDS_P2;PMS_P1;PMS_P2;Temp;Humidity;BMP_temperature;BMP_pressure;BME280_temperature;BME280_humidity;BME280_pressure;Samples;Min_cycle;Max_cycle;Signal;HPM_P1;HPM_P2
2023/09/15 00:00:25;;;;;;;995.72;938.00;;;;;;;21.13;63.46;98894.34;5035836;27;103256;-61
2023/09/15 00:02:56;;;;;;;1011.60;952.78;;;;;;;21.24;63.38;98893.97;5035573;27;102598;-61
2023/09/15 00:05:28;;;;;;;989.55;931.03;;;;;;;21.45;61.93;98897.91;5034377;27;103960;-61
2023/09/15 00:08:00;;;;;;;970.80;914.83;;;;;;;20.92;64.54;98891.34;5032794;27;104492;-60
2023/09/15 00:10:28;;;;;;;1001.53;942.30;;;;;;;22.19;60.93;98898.19;5032565;27;103141;-61
2023/09/15 00:12:56;;;;;;;908.07;856.30;;;;;;;22.63;58.69;98892.09;5034729;27;102996;-60
2023/09/15 00:15:24;;;;;;;824.30;779.20;;;;;;;22.00;58.97;98890.59;5033710;27;104143;-61
2023/09/15 00:17:54;;;;;;;913.20;862.65;;;;;;;20.47;66.66;98902.66;5031637;27;103791;-61
2023/09/15 00:20:24;;;;;;;1017.47;957.17;;;;;;;20.87;64.99;98893.72;5034253;27;103168;-61
2023/09/15 00:22:53;;;;;;;1063.07;997.23;;;;;;;20.92;65.28;98893.19;5031762;27;102709;-60
2023/09/15 00:25:26;;;;;;;1087.28;999.90;;;;;;;20.81;64.88;98886.34;5033346;27;102701;-61
2023/09/15 00:27:57;;;;;;;1079.75;999.90;;;;;;;20.28;68.66;98886.03;5024947;27;104496;-60
2023/09/15 00:30:26;;;;;;;1142.22;999.90;;;;;;;21.36;64.75;98881.81;5032228;27;103255;-61
2023/09/15 00:32:55;;;;;;;1066.55;999.13;;;;;;;21.39;63.49;98880.63;5035649;27;103074;-61
2023/09/15 00:35:27;;;;;;;1005.93;945.13;;;;;;;22.23;60.24;98877.94;5030902;27;102756;-61
2023/09/15 00:37:56;;;;;;;928.45;873.95;;;;;;;21.99;58.88;98888.91;5030103;27;104050;-61
2023/09/15 00:40:25;;;;;;;960.03;906.53;;;;;;;21.48;61.29;98876.91;5024141;27;104657;-61
2023/09/15 00:42:53;;;;;;;1005.97;945.75;;;;;;;20.61;64.88;98887.69;5030998;27;102763;-62
2023/09/15 00:45:22;;;;;;;1102.65;999.90;;;;;;;21.54;63.15;98878.03;5031779;27;103011;-61
2023/09/15 00:47:52;;;;;;;1049.15;985.25;;;;;;;20.91;63.57;98878.09;5034806;27;104212;-61
2023/09/15 00:50:23;;;;;;;1114.40;999.90;;;;;;;21.48;63.51;98871.53;5052962;27;103195;-61
2023/09/15 00:52:58;;;;;;;1038.38;973.35;;;;;;;21.70;60.65;98876.09;5037466;27;102927;-61
2023/09/15 00:55:29;;;;;;;1060.47;995.47;;;;;;;20.87;63.94;98877.59;5032417;27;104506;-61
2023/09/15 00:58:00;;;;;;;1088.88;999.90;;;;;;;20.55;64.70;98873.13;5025897;27;103293;-61
2023/09/15 01:00:30;;;;;;;1128.23;999.90;;;;;;;20.16;66.49;98880.97;5033716;27;104142;-62
2023/09/15 01:02:59;;;;;;;1161.85;999.90;;;;;;;20.09;67.33;98877.31;5035348;27;102780;-61
2023/09/15 01:05:28;;;;;;;1213.27;999.90;;;;;;;20.76;65.47;98877.97;5035592;27;104489;-61
2023/09/15 01:07:57;;;;;;;1193.53;999.90;;;;;;;21.20;63.94;98873.00;5033980;27;104167;-61
2023/09/15 01:10:25;;;;;;;1157.23;999.90;;;;;;;20.87;63.06;98872.22;5032372;27;104200;-61
2023/09/15 01:12:55;;;;;;;1165.82;999.90;;;;;;;20.54;65.77;98867.94;5033383;27;102760;-61
2023/09/15 01:15:30;;;;;;;1205.47;999.90;;;;;;;20.64;65.29;98871.25;5031948;27;103848;-61
2023/09/15 01:18:08;;;;;;;1198.60;999.90;;;;;;;20.09;67.24;98866.56;5035560;27;104210;-61
2023/09/15 01:21:20;;;;;;;1280.28;999.90;;;;;;;20.74;65.35;98861.19;5030847;27;104304;-61
2023/09/15 01:24:29;;;;;;;1188.10;999.90;;;;;;;21.85;60.73;98863.59;4952057;28;102806;-61
2023/09/15 01:27:18;;;;;;;1046.10;979.70;;;;;;;21.89;58.56;98858.72;5026885;27;103834;-61
2023/09/15 01:29:51;;;;;;;1071.87;999.90;;;;;;;20.04;65.50;98852.00;5038170;27;104643;-61
2023/09/15 01:32:20;;;;;;;1165.40;999.90;;;;;;;20.04;67.00;98862.72;5029526;27;103044;-61
2023/09/15 01:34:53;;;;;;;1213.93;999.90;;;;;;;20.05;67.39;98856.34;5022523;27;103461;-61
2023/09/15 01:37:23;;;;;;;1215.03;999.90;;;;;;;20.36;66.06;98859.22;5040498;27;103086;-61
2023/09/15 01:39:52;;;;;;;1234.20;999.90;;;;;;;20.00;67.73;98854.16;5024352;27;104439;-61
2023/09/15 01:42:20;;;;;;;1265.37;999.90;;;;;;;20.96;65.12;98856.94;5026726;27;103267;-61
2023/09/15 01:44:50;;;;;;;1211.38;999.90;;;;;;;20.50;65.30;98858.53;5026989;27;102846;-61
2023/09/15 01:47:20;;;;;;;1187.63;999.90;;;;;;;21.12;61.85;98856.91;5040345;27;105320;-61
2023/09/15 01:49:51;;;;;;;1164.90;999.90;;;;;;;20.94;62.74;98862.47;5024408;27;103868;-61
2023/09/15 01:52:20;;;;;;;1175.45;999.90;;;;;;;20.18;65.58;98865.56;5027788;27;102946;-62
2023/09/15 01:54:51;;;;;;;1176.30;999.90;;;;;;;20.86;63.90;98859.81;5021600;27;102950;-61
2023/09/15 01:57:19;;;;;;;1107.28;999.90;;;;;;;21.56;60.66;98857.22;5038012;27;103691;-60
2023/09/15 01:59:47;;;;;;;1116.05;999.90;;;;;;;20.23;65.28;98868.59;5028481;27;104419;-60
2023/09/15 02:02:17;;;;;;;1224.70;999.90;;;;;;;20.09;68.54;98865.72;5033756;27;103957;-60
2023/09/15 02:04:45;;;;;;;1340.15;999.90;;;;;;;20.77;65.77;98850.13;5035771;27;102620;-61
2023/09/15 02:07:13;;;;;;;1293.28;999.90;;;;;;;21.67;61.91;98857.63;5036381;27;103023;-60
2023/09/15 02:09:41;;;;;;;1166.05;999.90;;;;;;;21.67;59.41;98859.50;5034338;27;104199;-60
2023/09/15 02:12:11;;;;;;;1222.43;999.90;;;;;;;20.67;64.59;98854.81;5034494;27;103622;-61
2023/09/15 02:14:39;;;;;;;1217.35;999.90;;;;;;;21.64;60.88;98859.88;5034997;27;103109;-61
2023/09/15 02:17:13;;;;;;;1159.03;999.90;;;;;;;20.73;62.60;98860.34;5035974;27;102749;-61
2023/09/15 02:19:42;;;;;;;1206.68;999.90;;;;;;;20.93;61.91;98860.81;5033629;27;103482;-61
2023/09/15 02:22:11;;;;;;;1234.10;999.90;;;;;;;20.20;66.02;98855.53;5035503;27;103529;-61
2023/09/15 02:24:39;;;;;;;1330.20;999.90;;;;;;;20.64;65.04;98860.53;5048521;27;102681;-62
2023/09/15 02:27:07;;;;;;;1281.70;999.90;;;;;;;21.27;64.10;98857.88;5034818;27;103484;-62
2023/09/15 02:29:35;;;;;;;1201.30;999.90;;;;;;;21.77;61.54;98865.50;5045683;27;103466;-61
2023/09/15 02:32:03;;;;;;;1088.63;999.90;;;;;;;22.04;59.47;98872.22;5037481;27;104452;-61
2023/09/15 02:34:33;;;;;;;1021.85;956.70;;;;;;;22.05;58.06;98869.38;5028916;27;103080;-61
2023/09/15 02:37:03;;;;;;;994.53;931.42;;;;;;;21.87;57.58;98868.81;5034182;27;104189;-60
2023/09/15 02:39:31;;;;;;;980.15;919.33;;;;;;;22.11;56.84;98867.81;5034139;27;103204;-61
2023/09/15 02:42:01;;;;;;;1013.72;950.17;;;;;;;20.88;60.11;98868.53;5033416;27;103260;-61
2023/09/15 02:44:32;;;;;;;1082.55;999.90;;;;;;;19.88;64.01;98871.56;5030980;27;102793;-61
2023/09/15 02:47:00;;;;;;;1231.50;999.90;;;;;;;19.51;69.22;98868.47;5042976;27;103325;-61
2023/09/15 02:49:28;;;;;;;1316.53;999.90;;;;;;;19.35;70.32;98865.69;5030029;27;104337;-61
2023/09/15 02:51:57;;;;;;;1346.30;999.90;;;;;;;20.35;65.52;98866.41;5035112;27;104058;-61
2023/09/15 02:54:26;;;;;;;1300.07;999.90;;;;;;;19.57;68.88;98860.63;5035083;27;102894;-62
2023/09/15 02:56:56;;;;;;;1328.78;999.90;;;;;;;20.75;65.70;98860.16;5027404;27;102677;-62
2023/09/15 02:59:27;;;;;;;1303.57;999.90;;;;;;;20.73;65.46;98865.72;5031114;27;104186;-62
2023/09/15 03:01:55;;;;;;;1313.07;999.90;;;;;;;19.59;67.73;98860.47;5033144;27;103925;-62
2023/09/15 03:04:25;;;;;;;1385.77;999.90;;;;;;;20.29;66.82;98868.97;5027941;27;103267;-62
2023/09/15 03:06:54;;;;;;;1357.22;999.90;;;;;;;20.74;64.08;98861.19;5018672;27;103275;-62
2023/09/15 03:09:22;;;;;;;1332.95;999.90;;;;;;;19.78;67.22;98859.31;5032292;27;104566;-62
2023/09/15 03:11:51;;;;;;;1376.63;999.90;;;;;;;20.48;65.97;98855.19;5036164;27;103194;-62
2023/09/15 03:14:21;;;;;;;1243.53;999.90;;;;;;;21.25;62.22;98854.50;5029566;27;103186;-62
2023/09/15 03:16:51;;;;;;;1148.07;999.90;;;;;;;21.38;60.53;98860.16;5025366;27;103248;-62
2023/09/15 03:19:21;;;;;;;1174.07;999.90;;;;;;;19.77;66.19;98863.84;5034256;27;103634;-62
2023/09/15 03:21:49;;;;;;;1293.22;999.90;;;;;;;20.92;63.35;98864.50;5032522;27;104320;-63
2023/09/15 03:24:18;;;;;;;1267.50;999.90;;;;;;;21.43;61.27;98865.00;5026398;27;104429;-62
2023/09/15 03:26:46;;;;;;;1186.18;999.90;;;;;;;21.32;59.30;98869.75;5048346;27;103109;-62
2023/09/15 03:29:18;;;;;;;1219.60;999.90;;;;;;;20.07;63.69;98863.19;5028842;27;103571;-63
2023/09/15 03:31:46;;;;;;;1308.45;999.90;;;;;;;20.41;62.77;98865.75;5030826;27;103256;-62
2023/09/15 03:34:14;;;;;;;1287.70;999.90;;;;;;;19.94;62.79;98862.88;5047170;27;102872;-62
2023/09/15 03:36:42;;;;;;;1331.10;999.90;;;;;;;20.02;65.19;98860.19;5028105;27;104004;-62
2023/09/15 03:39:10;;;;;;;1366.45;999.90;;;;;;;20.97;61.72;98851.38;5027531;27;104232;-62
2023/09/15 03:41:38;;;;;;;1287.00;999.90;;;;;;;20.58;60.60;98863.88;5027003;27;104701;-62
2023/09/15 03:44:07;;;;;;;1308.93;999.90;;;;;;;20.38;62.14;98851.84;5031115;27;103136;-61
2023/09/15 03:46:39;;;;;;;1286.20;999.90;;;;;;;20.53;60.74;98856.34;5031253;27;103567;-60
2023/09/15 03:49:07;;;;;;;1309.32;999.90;;;;;;;20.03;63.72;98851.16;5031489;27;103383;-60
2023/09/15 03:51:36;;;;;;;1337.70;999.90;;;;;;;20.40;62.60;98858.72;5031630;27;104323;-60
2023/09/15 03:54:04;;;;;;;1311.38;999.90;;;;;;;19.38;66.01;98850.19;5031599;27;103031;-60
2023/09/15 03:56:32;;;;;;;1379.28;999.90;;;;;;;19.48;67.34;98847.38;5030301;27;103990;-60
2023/09/15 03:59:00;;;;;;;1423.53;999.90;;;;;;;19.08;70.05;98848.88;5029434;27;104295;-60
2023/09/15 04:01:28;;;;;;;1524.18;999.90;;;;;;;19.48;67.51;98850.06;5020612;27;104296;-60
2023/09/15 04:03:59;;;;;;;1482.23;999.90;;;;;;;19.63;67.32;98851.09;5030939;27;102761;-60
2023/09/15 04:06:27;;;;;;;1431.28;999.90;;;;;;;20.41;64.70;98841.59;5033278;27;102983;-60
2023/09/15 04:08:55;;;;;;;1376.95;999.90;;;;;;;20.65;62.93;98851.47;5033162;27;103067;-60
2023/09/15 04:11:25;;;;;;;1320.07;999.90;;;;;;;21.01;61.40;98847.34;5035225;27;104019;-60
2023/09/15 04:13:53;;;;;;;1292.80;999.90;;;;;;;21.12;60.23;98849.69;5030933;27;102693;-60
2023/09/15 04:16:21;;;;;;;1294.25;999.90;;;;;;;21.05;58.91;98843.28;5034004;27;103422;-60
2023/09/15 04:18:50;;;;;;;1299.47;999.90;;;;;;;21.21;58.96;98839.75;5035136;27;103212;-61
2023/09/15 04:21:20;;;;;;;1315.68;999.90;;;;;;;20.28;60.77;98843.13;5035496;27;103225;-61
2023/09/15 04:23:48;;;;;;;1338.18;999.90;;;;;;;19.83;63.79;98839.06;5037208;27;102940;-61
2023/09/15 04:26:16;;;;;;;1357.45;999.90;;;;;;;20.37;61.88;98831.38;5032806;27;104445;-62
2023/09/15 04:28:44;;;;;;;1344.03;999.90;;;;;;;20.11;63.11;98836.91;5035365;27;103451;-61
2023/09/15 04:31:12;;;;;;;1352.57;999.90;;;;;;;20.19;64.00;98829.69;5035262;27;104376;-61
2023/09/15 04:33:41;;;;;;;1357.75;999.90;;;;;;;20.97;61.23;98829.88;5037991;27;102851;-61
2023/09/15 04:36:09;;;;;;;1315.67;999.90;;;;;;;21.16;59.91;98832.22;5038068;27;103008;-61
2023/09/15 04:38:39;;;;;;;1351.32;999.90;;;;;;;21.27;58.68;98831.00;5035233;27;104262;-61
2023/09/15 04:41:07;;;;;;;1287.43;999.90;;;;;;;19.81;62.70;98834.88;5037518;27;103193;-61
2023/09/15 04:43:35;;;;;;;1337.70;999.90;;;;;;;19.99;63.60;98838.22;5034675;27;102732;-61
2023/09/15 04:46:06;;;;;;;1354.07;999.90;;;;;;;19.44;65.95;98837.97;5037679;27;105162;-61
2023/09/15 04:48:34;;;;;;;1391.47;999.90;;;;;;;19.84;65.32;98835.38;5037943;27;105514;-61
2023/09/15 04:51:02;;;;;;;1380.07;999.90;;;;;;;20.07;63.47;98836.38;5036055;27;103429;-61
2023/09/15 04:53:30;;;;;;;1340.63;999.90;;;;;;;20.33;62.06;98833.56;5033858;27;103038;-61
2023/09/15 04:56:03;;;;;;;1347.95;999.90;;;;;;;19.95;62.17;98837.75;5048689;27;102863;-61
2023/09/15 04:58:32;;;;;;;1349.07;999.90;;;;;;;19.32;65.36;98839.22;5037581;27;105348;-61
2023/09/15 05:01:03;;;;;;;1402.40;999.90;;;;;;;19.47;66.50;98838.50;5030972;27;103149;-61
2023/09/15 05:03:33;;;;;;;1415.22;999.90;;;;;;;19.49;65.83;98830.28;5033563;27;102919;-61
2023/09/15 05:06:05;;;;;;;1403.43;999.90;;;;;;;19.83;65.13;98828.34;5033735;27;103172;-61
2023/09/15 05:08:33;;;;;;;1384.20;999.90;;;;;;;20.24;63.31;98827.38;5035824;27;105322;-61
2023/09/15 05:11:03;;;;;;;1354.88;999.90;;;;;;;20.13;62.98;98829.50;5041861;27;103184;-61
2023/09/15 05:13:32;;;;;;;1340.47;999.90;;;;;;;20.72;61.12;98826.44;5032991;27;103687;-62
2023/09/15 05:16:02;;;;;;;1337.70;999.90;;;;;;;19.01;67.34;98829.09;5035973;27;102724;-62
2023/09/15 05:18:31;;;;;;;1404.35;999.90;;;;;;;20.06;65.00;98829.38;5037105;27;105948;-62
2023/09/15 05:20:59;;;;;;;1379.65;999.90;;;;;;;20.66;61.93;98831.69;5034483;27;103191;-62
2023/09/15 05:23:27;;;;;;;1359.47;999.90;;;;;;;21.02;61.02;98837.44;5035755;27;102647;-62
2023/09/15 05:25:55;;;;;;;1337.50;999.90;;;;;;;21.21;59.17;98842.44;5034121;27;105423;-62
2023/09/15 05:28:26;;;;;;;1333.18;999.90;;;;;;;21.03;59.14;98839.09;5051606;27;105430;-62
2023/09/15 05:30:59;;;;;;;1341.93;999.90;;;;;;;20.07;62.70;98851.66;5039151;27;103230;-62
2023/09/15 05:33:30;;;;;;;1375.30;999.90;;;;;;;19.67;64.49;98844.41;5040609;27;102699;-62
2023/09/15 05:35:59;;;;;;;1425.47;999.90;;;;;;;20.31;64.03;98854.38;5034662;27;103959;-63
2023/09/15 05:38:27;;;;;;;1401.38;999.90;;;;;;;20.48;62.00;98849.81;5039115;27;103954;-62
2023/09/15 05:40:55;;;;;;;1383.25;999.90;;;;;;;20.78;61.63;98846.41;5040483;27;104466;-62
2023/09/15 05:43:24;;;;;;;1381.03;999.90;;;;;;;20.72;61.39;98850.63;5039077;27;102999;-62
2023/09/15 05:45:55;;;;;;;1386.45;999.90;;;;;;;20.68;62.53;98851.13;5037822;27;102982;-62
2023/09/15 05:48:23;;;;;;;1394.65;999.90;;;;;;;20.30;63.85;98846.47;5043280;27;104045;-62
2023/09/15 05:50:52;;;;;;;1396.05;999.90;;;;;;;20.24;64.28;98853.31;5042117;27;103276;-62
2023/09/15 05:53:23;;;;;;;1414.03;999.90;;;;;;;20.35;65.23;98850.31;5041512;27;102759;-62
2023/09/15 05:55:53;;;;;;;1419.20;999.90;;;;;;;21.18;63.32;98849.00;5036704;27;103150;-62
2023/09/15 05:58:21;;;;;;;1405.03;999.90;;;;;;;21.67;60.72;98854.13;5037243;27;104101;-62
2023/09/15 06:00:50;;;;;;;1373.10;999.90;;;;;;;21.88;59.39;98854.34;5039041;27;104188;-62
2023/09/15 06:03:19;;;;;;;1376.25;999.90;;;;;;;22.13;58.79;98846.94;5034076;27;103050;-62
2023/09/15 06:05:47;;;;;;;1361.63;999.90;;;;;;;22.37;57.11;98850.25;5029572;27;104348;-62
2023/09/15 06:08:15;;;;;;;1335.03;999.90;;;;;;;22.51;56.24;98849.44;5036662;27;103358;-62
2023/09/15 06:10:43;;;;;;;1292.78;999.90;;;;;;;22.70;55.55;98855.38;5033218;27;103282;-62
2023/09/15 06:13:11;;;;;;;1290.18;999.90;;;;;;;22.84;55.42;98854.56;5041562;27;103678;-62
2023/09/15 06:15:39;;;;;;;1298.07;999.90;;;;;;;22.95;54.78;98856.78;5041144;27;104146;-62
2023/09/15 06:18:07;;;;;;;1326.87;999.90;;;;;;;22.78;55.64;98868.75;5040841;27;104041;-62
2023/09/15 06:20:36;;;;;;;1328.60;999.90;;;;;;;22.63;56.28;98857.06;5042721;27;103432;-62
2023/09/15 06:23:04;;;;;;;1301.83;999.90;;;;;;;23.07;54.85;98855.31;5043304;27;103074;-62
2023/09/15 06:25:35;;;;;;;1274.47;999.90;;;;;;;23.31;54.20;98862.25;5041709;27;102738;-62
2023/09/15 06:28:03;;;;;;;1211.93;999.90;;;;;;;23.51;53.42;98856.13;5044269;27;103363;-62
2023/09/15 06:30:47;;;;;;;1169.60;999.90;;;;;;;23.66;53.24;98856.91;5041446;27;103208;-62
2023/09/15 06:33:16;;;;;;;1152.50;999.90;;;;;;;23.83;52.59;98856.69;5041156;27;102727;-62
2023/09/15 06:35:47;;;;;;;1152.18;999.90;;;;;;;23.97;52.96;98853.91;5043050;27;102723;-62
2023/09/15 06:38:16;;;;;;;1112.88;999.90;;;;;;;24.04;52.28;98859.41;5038228;27;103478;-62
2023/09/15 06:40:46;;;;;;;1130.87;999.90;;;;;;;24.14;51.97;98857.25;5043188;27;103320;-62
2023/09/15 06:43:14;;;;;;;1124.72;999.90;;;;;;;24.27;52.03;98848.44;5037542;27;102695;-61
2023/09/15 06:45:43;;;;;;;1112.00;999.90;;;;;;;24.36;51.89;98856.22;5054646;27;104342;-62
2023/09/15 06:48:12;;;;;;;1080.50;999.90;;;;;;;24.41;51.60;98856.47;5040178;27;103307;-63
2023/09/15 06:50:40;;;;;;;1056.80;978.37;;;;;;;24.38;51.94;98856.00;5042091;27;103472;-62
2023/09/15 06:53:10;;;;;;;1081.25;999.33;;;;;;;24.58;51.98;98855.16;5044520;27;102752;-62
2023/09/15 06:55:39;;;;;;;1087.05;999.90;;;;;;;24.71;51.76;98857.09;5035627;27;102799;-62
2023/09/15 06:58:06;;;;;;;1059.90;981.88;;;;;;;24.95;51.35;98858.56;5040591;27;105005;-62
2023/09/15 07:00:39;;;;;;;1032.32;955.67;;;;;;;25.13;50.76;98848.88;5042789;27;103299;-63
2023/09/15 07:03:07;;;;;;;1182.07;999.90;;;;;;;24.76;53.28;98847.38;5043274;27;102759;-62
2023/09/15 07:05:35;;;;;;;1128.53;999.90;;;;;;;24.96;52.70;98846.69;5040777;27;104295;-62
2023/09/15 07:08:03;;;;;;;1282.70;999.90;;;;;;;23.74;56.53;98847.03;5042571;27;104029;-63
2023/09/15 07:10:32;;;;;;;1305.72;999.90;;;;;;;23.00;59.35;98843.59;5041466;27;103404;-62
2023/09/15 07:13:00;;;;;;;1333.18;999.90;;;;;;;23.22;59.14;98849.88;5040642;27;102968;-61
2023/09/15 07:15:32;;;;;;;1302.70;999.90;;;;;;;22.00;63.88;98844.03;5039647;27;103496;-62
2023/09/15 07:18:00;;;;;;;1306.20;999.90;;;;;;;21.66;65.44;98844.38;5042061;27;103425;-62
2023/09/15 07:20:29;;;;;;;1307.38;999.90;;;;;;;23.56;60.08;98836.66;5042824;27;102984;-61
2023/09/15 07:22:57;;;;;;;1192.65;999.90;;;;;;;23.89;56.36;98834.34;5040343;27;102723;-62
2023/09/15 07:25:26;;;;;;;1233.28;999.90;;;;;;;23.77;59.96;98846.66;5043469;27;103980;-62
2023/09/15 07:27:56;;;;;;;1075.67;996.40;;;;;;;24.69;54.59;98843.81;5040722;27;104384;-61
2023/09/15 07:30:25;;;;;;;984.63;911.70;;;;;;;25.60;52.51;98839.97;5041919;27;103219;-62
2023/09/15 07:32:53;;;;;;;931.53;862.35;;;;;;;26.21;51.19;98829.09;5039669;27;102732;-62
2023/09/15 07:35:23;;;;;;;929.50;863.03;;;;;;;26.69;50.68;98841.41;5040944;27;102883;-61
2023/09/15 07:37:51;;;;;;;895.43;829.47;;;;;;;27.36;49.28;98841.06;5041705;27;103290;-61
2023/09/15 07:40:22;;;;;;;764.65;706.30;;;;;;;27.72;47.61;98835.06;5037189;27;103896;-62
2023/09/15 07:42:52;;;;;;;733.25;677.08;;;;;;;27.30;47.89;98841.06;5042170;27;102757;-62
2023/09/15 07:45:23;;;;;;;787.58;726.58;;;;;;;28.48;46.57;98833.13;5041729;27;102902;-61
2023/09/15 07:47:51;;;;;;;824.17;760.00;;;;;;;28.75;46.62;98836.44;5042180;27;103517;-62
2023/09/15 07:50:23;;;;;;;730.05;671.42;;;;;;;29.40;44.45;98837.66;5040908;27;102968;-62
2023/09/15 07:52:53;;;;;;;766.03;707.17;;;;;;;28.97;45.18;98840.41;5043517;27;103438;-62
2023/09/15 07:55:23;;;;;;;862.30;794.57;;;;;;;28.69;45.85;98826.47;5042794;27;104158;-62
2023/09/15 07:57:52;;;;;;;938.72;862.08;;;;;;;28.39;47.54;98829.00;5039387;27;104335;-62
2023/09/15 08:00:24;;;;;;;891.50;816.08;;;;;;;29.62;45.06;98827.13;5041231;27;104277;-62
2023/09/15 08:02:53;;;;;;;918.25;847.85;;;;;;;25.63;52.50;98836.03;5043252;27;102648;-62
2023/09/15 08:05:21;;;;;;;982.33;896.05;;;;;;;29.10;46.69;98823.97;5045065;27;104056;-63
2023/09/15 08:07:50;;;;;;;914.38;840.67;;;;;;;27.91;47.40;98828.69;5041543;27;103357;-62
2023/09/15 08:10:19;;;;;;;896.95;823.33;;;;;;;28.45;46.71;98821.84;5042224;27;104193;-62
2023/09/15 08:12:52;;;;;;;887.65;814.15;;;;;;;28.93;46.63;98822.91;5040195;27;102615;-62
2023/09/15 08:15:21;;;;;;;892.67;819.35;;;;;;;28.19;46.40;98823.72;5041770;27;103248;-62
2023/09/15 08:18:01;;;;;;;948.55;866.10;;;;;;;28.09;48.43;98831.53;5044690;27;103460;-61
2023/09/15 08:20:30;;;;;;;887.38;814.95;;;;;;;26.93;49.11;98820.94;5042465;27;103293;-61
2023/09/15 08:22:59;;;;;;;924.60;847.42;;;;;;;27.68;48.33;98817.53;5042043;27;102834;-62
2023/09/15 08:25:33;;;;;;;931.30;851.53;;;;;;;29.79;45.91;98818.09;5042616;27;102944;-62
2023/09/15 08:28:29;;;;;;;945.70;866.63;;;;;;;29.05;47.22;98812.09;5040986;27;103720;-61
2023/09/15 08:30:58;;;;;;;814.90;743.47;;;;;;;31.15;43.25;98812.53;5038344;27;103318;-61
2023/09/15 08:33:28;;;;;;;589.20;540.70;;;;;;;32.20;40.08;98810.25;5041213;27;102955;-61
2023/09/15 08:35:56;;;;;;;655.92;601.97;;;;;;;31.75;41.95;98812.94;5043467;27;102715;-61
2023/09/15 08:38:31;;;;;;;504.75;467.05;;;;;;;32.14;40.17;98822.19;5038001;27;104154;-62
2023/09/15 08:41:06;;;;;;;473.23;438.25;;;;;;;32.65;40.13;98812.94;5034978;27;102688;-62
2023/09/15 08:43:34;;;;;;;413.20;384.10;;;;;;;32.07;40.21;98802.38;5041298;27;103239;-62
2023/09/15 08:46:32;;;;;;;408.52;380.80;;;;;;;32.88;39.71;98811.91;5044956;27;103004;-62
2023/09/15 08:49:02;;;;;;;275.88;262.15;;;;;;;33.45;38.65;98801.50;5043096;27;104461;-62
2023/09/15 08:51:32;;;;;;;312.73;291.05;;;;;;;32.46;39.39;98806.88;5040669;27;104185;-62
2023/09/15 08:54:10;;;;;;;299.05;279.52;;;;;;;32.91;39.35;98811.41;5040091;27;102686;-62
2023/09/15 08:56:44;;;;;;;221.60;206.50;;;;;;;29.24;43.08;98809.19;5041975;27;104285;-62
2023/09/15 08:59:12;;;;;;;319.02;294.38;;;;;;;31.71;41.33;98797.31;5035523;27;104339;-62
2023/09/15 09:01:41;;;;;;;112.70;106.63;;;;;;;33.48;38.60;98795.50;5037415;27;103195;-62
2023/09/15 09:04:11;;;;;;;203.13;192.15;;;;;;;28.35;46.46;98803.31;5037368;27;102657;-62
2023/09/15 09:06:40;;;;;;;296.37;278.07;;;;;;;29.95;44.35;98799.47;5036664;27;103838;-62
2023/09/15 09:09:09;;;;;;;157.75;148.48;;;;;;;32.01;41.23;98789.69;5042953;27;104764;-62
2023/09/15 09:11:38;;;;;;;98.63;93.93;;;;;;;33.75;39.03;98791.75;5041469;27;103163;-62
2023/09/15 09:14:12;;;;;;;82.93;79.23;;;;;;;33.83;37.93;98780.31;5043562;27;102890;-62
2023/09/15 09:16:47;;;;;;;84.53;80.95;;;;;;;34.81;36.93;98784.47;5042910;27;103637;-62
2023/09/15 09:19:17;;;;;;;111.70;106.90;;;;;;;32.20;39.63;98787.59;5044790;27;103695;-63
2023/09/15 09:21:46;;;;;;;129.35;123.78;;;;;;;33.16;39.29;98784.44;5043155;27;103203;-62
2023/09/15 09:24:24;;;;;;;77.22;73.82;;;;;;;34.83;36.78;98782.31;5043338;27;103007;-62
2023/09/15 09:26:55;;;;;;;82.10;78.45;;;;;;;34.18;37.27;98779.88;5045282;27;103190;-63
2023/09/15 09:29:27;;;;;;;113.25;108.30;;;;;;;31.76;40.83;98776.38;5041228;27;104315;-63
2023/09/15 09:31:55;;;;;;;130.60;124.85;;;;;;;32.53;39.04;98774.75;5043083;27;103285;-61
2023/09/15 09:34:25;;;;;;;113.53;108.57;;;;;;;31.91;39.84;98773.13;5044151;27;102621;-61
2023/09/15 09:37:15;;;;;;;120.20;114.75;;;;;;;32.03;40.92;98765.69;5044896;27;103952;-60
2023/09/15 09:39:48;;;;;;;77.43;74.13;;;;;;;33.96;38.14;98772.78;5041083;27;104774;-61
2023/09/15 09:42:16;;;;;;;100.27;96.03;;;;;;;33.83;38.89;98773.22;5043309;27;103128;-61
2023/09/15 09:44:46;;;;;;;52.87;50.37;;;;;;;35.07;36.50;98757.19;5044129;27;102897;-61
2023/09/15 09:47:15;;;;;;;93.32;89.10;;;;;;;31.20;41.22;98768.97;5046990;27;102640;-61
2023/09/15 09:49:47;;;;;;;65.82;63.08;;;;;;;33.81;38.25;98763.31;5043753;27;104057;-61
2023/09/15 09:52:17;;;;;;;75.75;72.25;;;;;;;34.43;38.13;98768.28;5038241;27;103273;-61
2023/09/15 09:54:52;;;;;;;136.95;131.57;;;;;;;29.49;45.78;98770.16;5043817;27;102932;-61
2023/09/15 09:57:20;;;;;;;106.85;102.35;;;;;;;31.67;41.47;98755.16;5043985;27;103871;-61
2023/09/15 09:59:49;;;;;;;69.33;66.33;;;;;;;33.94;38.21;98761.25;5043587;27;103920;-61
2023/09/15 10:02:17;;;;;;;53.87;51.47;;;;;;;34.52;37.51;98753.00;5043505;27;102986;-62
2023/09/15 10:04:47;;;;;;;82.60;79.10;;;;;;;31.13;42.96;98757.34;5044517;27;102831;-62
2023/09/15 10:07:15;;;;;;;151.63;145.82;;;;;;;29.24;45.30;98754.78;5039414;27;102991;-62
2023/09/15 10:09:44;;;;;;;182.80;176.02;;;;;;;29.02;46.53;98750.00;5043735;27;104229;-62
2023/09/15 10:12:14;;;;;;;169.60;163.07;;;;;;;29.66;45.97;98741.22;5044549;27;103182;-61
2023/09/15 10:14:43;;;;;;;80.28;76.97;;;;;;;32.23;41.83;98738.72;5043964;27;102621;-62
2023/09/15 10:17:12;;;;;;;147.60;141.85;;;;;;;29.48;46.55;98744.81;5045855;27;103102;-63
2023/09/15 10:19:42;;;;;;;88.45;84.85;;;;;;;30.65;44.12;98741.31;5041085;27;104110;-63
2023/09/15 10:22:11;;;;;;;51.35;49.05;;;;;;;32.12;41.07;98734.16;5040577;27;103444;-62
2023/09/15 10:24:44;;;;;;;96.70;92.73;;;;;;;30.82;44.02;98725.03;5043050;27;104528;-62
2023/09/15 10:27:13;;;;;;;72.93;69.53;;;;;;;31.71;42.26;98723.59;5045020;27;103768;-62
2023/09/15 10:29:52;;;;;;;71.97;68.77;;;;;;;30.42;45.05;98724.94;5057089;27;103307;-62
2023/09/15 10:32:21;;;;;;;60.85;58.00;;;;;;;30.09;44.90;98722.75;5042306;27;103139;-62
2023/09/15 10:34:51;;;;;;;113.30;108.72;;;;;;;29.43;46.11;98724.81;5041865;27;102914;-62
2023/09/15 10:37:24;;;;;;;52.37;50.07;;;;;;;32.22;42.57;98709.75;5042849;27;103079;-62
2023/09/15 10:40:01;;;;;;;42.63;40.55;;;;;;;30.71;43.43;98717.72;5034248;27;105596;-62
2023/09/15 10:42:29;;;;;;;35.08;33.50;;;;;;;33.47;40.18;98711.69;5040947;27;104143;-62
2023/09/15 10:44:57;;;;;;;32.63;31.10;;;;;;;34.35;37.89;98709.28;5041264;27;105369;-62
2023/09/15 10:47:25;;;;;;;38.75;36.97;;;;;;;34.97;36.51;98699.50;5031068;27;102695;-62
2023/09/15 10:49:55;;;;;;;41.43;39.40;;;;;;;31.17;43.47;98706.69;5050498;27;103327;-61
2023/09/15 10:52:36;;;;;;;35.25;33.67;;;;;;;32.60;40.66;98698.84;5040717;27;104076;-60
2023/09/15 10:55:05;;;;;;;42.25;40.20;;;;;;;32.37;41.44;98699.03;5041756;27;102727;-62
2023/09/15 10:57:35;;;;;;;37.03;35.17;;;;;;;32.42;40.86;98688.16;5043367;27;103755;-61
2023/09/15 11:00:06;;;;;;;34.95;33.28;;;;;;;35.24;37.24;98678.22;5025042;27;104264;-63
2023/09/15 11:02:36;;;;;;;35.85;34.05;;;;;;;34.56;36.90;98685.53;5043099;27;103260;-63
2023/09/15 11:05:06;;;;;;;30.60;29.17;;;;;;;34.22;38.93;98681.50;5042107;27;103234;-61